sensor_id;sensor_type;location;lat;lon;timestamp;temperature;humidity
17066;DHT22;23120;52.336;21.182;2023-10-13T00:01:02;8.40;99.90
17066;DHT22;23120;52.336;21.182;2023-10-13T00:03:30;8.40;99.90
17066;DHT22;23120;52.336;21.182;2023-10-13T00:06:01;8.40;99.90
17066;DHT22;23120;52.336;21.182;2023-10-13T00:08:29;8.30;99.90
17066;DHT22;23120;52.336;21.182;2023-10-13T00:10:56;8.30;99.90
17066;DHT22;23120;52.336;21.182;2023-10-13T00:13:27;8.30;99.90
17066;DHT22;23120;52.336;21.182;2023-10-13T00:15:55;8.30;99.90
17066;DHT22;23120;52.336;21.182;2023-10-13T00:18:24;8.30;99.90
17066;DHT22;23120;52.336;21.182;2023-10-13T00:20:52;8.20;99.90
17066;DHT22;23120;52.336;21.182;2023-10-13T00:23:23;8.20;99.90
17066;DHT22;23120;52.336;21.182;2023-10-13T00:25:53;8.20;99.90
17066;DHT22;23120;52.336;21.182;2023-10-13T00:28:28;8.20;99.90
17066;DHT22;23120;52.336;21.182;2023-10-13T00:31:08;8.10;99.90
17066;DHT22;23120;52.336;21.182;2023-10-13T00:33:37;8.10;99.90
17066;DHT22;23120;52.336;21.182;2023-10-13T00:36:04;8.00;99.90
17066;DHT22;23120;52.336;21.182;2023-10-13T00:38:35;8.00;99.90
17066;DHT22;23120;52.336;21.182;2023-10-13T00:41:02;8.00;99.90
17066;DHT22;23120;52.336;21.182;2023-10-13T00:43:44;7.90;99.90
17066;DHT22;23120;52.336;21.182;2023-10-13T00:46:13;7.90;99.90
17066;DHT22;23120;52.336;21.182;2023-10-13T00:48:45;7.90;99.90
17066;DHT22;23120;52.336;21.182;2023-10-13T00:51:18;7.80;99.90
17066;DHT22;23120;52.336;21.182;2023-10-13T00:53:49;7.80;99.90
17066;DHT22;23120;52.336;21.182;2023-10-13T00:56:17;7.80;99.90
17066;DHT22;23120;52.336;21.182;2023-10-13T00:58:47;7.70;99.90
17066;DHT22;23120;52.336;21.182;2023-10-13T01:01:15;7.70;99.90
17066;DHT22;23120;52.336;21.182;2023-10-13T01:03:45;7.60;99.90
17066;DHT22;23120;52.336;21.182;2023-10-13T01:06:15;7.60;99.90
17066;DHT22;23120;52.336;21.182;2023-10-13T01:08:44;7.60;99.90
17066;DHT22;23120;52.336;21.182;2023-10-13T01:11:12;7.50;99.90
17066;DHT22;23120;52.336;21.182;2023-10-13T01:13:39;7.50;99.90
17066;DHT22;23120;52.336;21.182;2023-10-13T01:16:07;7.40;99.90
17066;DHT22;23120;52.336;21.182;2023-10-13T01:18:33;7.40;99.90
17066;DHT22;23120;52.336;21.182;2023-10-13T01:21:05;7.40;99.90
17066;DHT22;23120;52.336;21.182;2023-10-13T01:23:34;7.40;99.90
17066;DHT22;23120;52.336;21.182;2023-10-13T01:26:04;7.30;99.90
17066;DHT22;23120;52.336;21.182;2023-10-13T01:28:32;7.30;99.90
17066;DHT22;23120;52.336;21.182;2023-10-13T01:31:10;7.30;99.90
17066;DHT22;23120;52.336;21.182;2023-10-13T01:33:39;7.20;99.90
17066;DHT22;23120;52.336;21.182;2023-10-13T01:36:04;7.20;99.90
17066;DHT22;23120;52.336;21.182;2023-10-13T01:38:36;7.20;99.90
17066;DHT22;23120;52.336;21.182;2023-10-13T01:41:07;7.10;99.90
17066;DHT22;23120;52.336;21.182;2023-10-13T01:43:35;7.10;99.90
17066;DHT22;23120;52.336;21.182;2023-10-13T01:46:01;7.10;99.90
17066;DHT22;23120;52.336;21.182;2023-10-13T01:48:29;7.00;99.90
17066;DHT22;23120;52.336;21.182;2023-10-13T01:50:58;7.00;99.90
17066;DHT22;23120;52.336;21.182;2023-10-13T01:53:28;6.90;99.90
17066;DHT22;23120;52.336;21.182;2023-10-13T01:55:56;6.90;99.90
17066;DHT22;23120;52.336;21.182;2023-10-13T01:58:24;6.80;99.90
17066;DHT22;23120;52.336;21.182;2023-10-13T02:00:52;6.70;99.90
17066;DHT22;23120;52.336;21.182;2023-10-13T02:03:18;6.70;99.90
17066;DHT22;23120;52.336;21.182;2023-10-13T02:05:48;6.70;99.90
17066;DHT22;23120;52.336;21.182;2023-10-13T02:08:19;6.60;99.90
17066;DHT22;23120;52.336;21.182;2023-10-13T02:10:49;6.70;99.90
17066;DHT22;23120;52.336;21.182;2023-10-13T02:13:19;6.60;99.90
17066;DHT22;23120;52.336;21.182;2023-10-13T02:15:46;6.60;99.90
17066;DHT22;23120;52.336;21.182;2023-10-13T02:18:15;6.50;99.90
17066;DHT22;23120;52.336;21.182;2023-10-13T02:20:47;6.50;99.90
17066;DHT22;23120;52.336;21.182;2023-10-13T02:23:23;6.50;99.90
17066;DHT22;23120;52.336;21.182;2023-10-13T02:25:50;6.50;99.90
17066;DHT22;23120;52.336;21.182;2023-10-13T02:28:27;6.40;99.90
17066;DHT22;23120;52.336;21.182;2023-10-13T02:31:02;6.40;99.90
17066;DHT22;23120;52.336;21.182;2023-10-13T02:33:28;6.40;99.90
17066;DHT22;23120;52.336;21.182;2023-10-13T02:35:58;6.40;99.90
17066;DHT22;23120;52.336;21.182;2023-10-13T02:38:25;6.30;99.90
17066;DHT22;23120;52.336;21.182;2023-10-13T02:40:59;6.30;99.90
17066;DHT22;23120;52.336;21.182;2023-10-13T02:43:34;6.30;99.90
17066;DHT22;23120;52.336;21.182;2023-10-13T02:46:01;6.20;99.90
17066;DHT22;23120;52.336;21.182;2023-10-13T02:48:27;6.20;99.90
17066;DHT22;23120;52.336;21.182;2023-10-13T02:50:57;6.20;99.90
17066;DHT22;23120;52.336;21.182;2023-10-13T02:53:28;6.10;99.90
17066;DHT22;23120;52.336;21.182;2023-10-13T02:55:55;6.10;99.90
17066;DHT22;23120;52.336;21.182;2023-10-13T02:58:23;6.00;99.90
17066;DHT22;23120;52.336;21.182;2023-10-13T03:01:06;6.00;99.90
17066;DHT22;23120;52.336;21.182;2023-10-13T03:03:43;6.00;99.90
17066;DHT22;23120;52.336;21.182;2023-10-13T03:06:14;5.90;99.90
17066;DHT22;23120;52.336;21.182;2023-10-13T03:08:40;5.90;99.90
17066;DHT22;23120;52.336;21.182;2023-10-13T03:11:09;5.90;99.90
17066;DHT22;23120;52.336;21.182;2023-10-13T03:13:35;5.80;99.90
17066;DHT22;23120;52.336;21.182;2023-10-13T03:16:12;5.80;99.90
17066;DHT22;23120;52.336;21.182;2023-10-13T03:18:38;5.80;99.90
17066;DHT22;23120;52.336;21.182;2023-10-13T03:21:05;5.70;99.90
17066;DHT22;23120;52.336;21.182;2023-10-13T03:23:33;5.70;99.90
17066;DHT22;23120;52.336;21.182;2023-10-13T03:26:11;5.70;99.90
17066;DHT22;23120;52.336;21.182;2023-10-13T03:28:37;5.70;99.90
17066;DHT22;23120;52.336;21.182;2023-10-13T03:31:04;5.60;99.90
17066;DHT22;23120;52.336;21.182;2023-10-13T03:33:33;5.60;99.90
17066;DHT22;23120;52.336;21.182;2023-10-13T03:36:00;5.60;99.90
17066;DHT22;23120;52.336;21.182;2023-10-13T03:38:32;5.60;99.90
17066;DHT22;23120;52.336;21.182;2023-10-13T03:41:02;5.50;99.90
17066;DHT22;23120;52.336;21.182;2023-10-13T03:43:37;5.50;99.90
17066;DHT22;23120;52.336;21.182;2023-10-13T03:46:11;5.50;99.90
17066;DHT22;23120;52.336;21.182;2023-10-13T03:48:39;5.40;99.90
17066;DHT22;23120;52.336;21.182;2023-10-13T03:51:18;5.40;99.90
17066;DHT22;23120;52.336;21.182;2023-10-13T03:53:45;5.40;99.90
17066;DHT22;23120;52.336;21.182;2023-10-13T03:56:19;5.40;99.90
17066;DHT22;23120;52.336;21.182;2023-10-13T03:58:53;5.40;99.90
17066;DHT22;23120;52.336;21.182;2023-10-13T04:01:23;5.40;99.90
17066;DHT22;23120;52.336;21.182;2023-10-13T04:03:59;5.40;99.90
17066;DHT22;23120;52.336;21.182;2023-10-13T04:06:33;5.30;99.90
17066;DHT22;23120;52.336;21.182;2023-10-13T04:09:24;5.30;99.90
17066;DHT22;23120;52.336;21.182;2023-10-13T04:12:09;5.20;99.90
17066;DHT22;23120;52.336;21.182;2023-10-13T04:15:07;5.20;99.90
17066;DHT22;23120;52.336;21.182;2023-10-13T04:17:45;5.20;99.90
17066;DHT22;23120;52.336;21.182;2023-10-13T04:20:15;5.20;99.90
17066;DHT22;23120;52.336;21.182;2023-10-13T04:22:58;5.20;99.90
17066;DHT22;23120;52.336;21.182;2023-10-13T04:25:44;5.20;99.90
17066;DHT22;23120;52.336;21.182;2023-10-13T04:28:34;5.10;99.90
17066;DHT22;23120;52.336;21.182;2023-10-13T04:31:00;5.10;99.90
17066;DHT22;23120;52.336;21.182;2023-10-13T04:33:38;5.10;99.90
17066;DHT22;23120;52.336;21.182;2023-10-13T04:36:18;5.10;99.90
17066;DHT22;23120;52.336;21.182;2023-10-13T04:39:03;5.10;99.90
17066;DHT22;23120;52.336;21.182;2023-10-13T04:41:36;5.00;99.90
17066;DHT22;23120;52.336;21.182;2023-10-13T04:44:05;5.00;99.90
17066;DHT22;23120;52.336;21.182;2023-10-13T04:46:46;5.00;99.90
17066;DHT22;23120;52.336;21.182;2023-10-13T04:49:38;5.00;99.90
17066;DHT22;23120;52.336;21.182;2023-10-13T04:52:19;4.90;99.90
17066;DHT22;23120;52.336;21.182;2023-10-13T04:55:05;4.90;99.90
17066;DHT22;23120;52.336;21.182;2023-10-13T04:58:09;4.90;99.90
17066;DHT22;23120;52.336;21.182;2023-10-13T05:00:40;4.90;99.90
17066;DHT22;23120;52.336;21.182;2023-10-13T05:03:34;4.90;99.90
17066;DHT22;23120;52.336;21.182;2023-10-13T05:06:19;4.90;99.90
17066;DHT22;23120;52.336;21.182;2023-10-13T05:09:04;4.90;99.90
17066;DHT22;23120;52.336;21.182;2023-10-13T05:11:49;4.90;99.90
17066;DHT22;23120;52.336;21.182;2023-10-13T05:14:30;4.90;99.90
17066;DHT22;23120;52.336;21.182;2023-10-13T05:17:14;4.90;99.90
17066;DHT22;23120;52.336;21.182;2023-10-13T05:19:58;4.90;99.90
17066;DHT22;23120;52.336;21.182;2023-10-13T05:22:42;4.80;99.90
17066;DHT22;23120;52.336;21.182;2023-10-13T05:25:28;4.80;99.90
17066;DHT22;23120;52.336;21.182;2023-10-13T05:28:12;4.90;99.90
17066;DHT22;23120;52.336;21.182;2023-10-13T05:30:59;4.90;99.90
17066;DHT22;23120;52.336;21.182;2023-10-13T05:33:43;4.90;99.90
17066;DHT22;23120;52.336;21.182;2023-10-13T05:36:28;4.90;99.90
17066;DHT22;23120;52.336;21.182;2023-10-13T05:39:12;4.90;99.90
17066;DHT22;23120;52.336;21.182;2023-10-13T05:41:57;4.90;99.90
17066;DHT22;23120;52.336;21.182;2023-10-13T05:44:42;4.90;99.90
17066;DHT22;23120;52.336;21.182;2023-10-13T05:47:22;5.00;99.90
17066;DHT22;23120;52.336;21.182;2023-10-13T05:50:15;4.90;99.90
17066;DHT22;23120;52.336;21.182;2023-10-13T05:53:15;5.00;99.90
17066;DHT22;23120;52.336;21.182;2023-10-13T05:56:01;5.00;99.90
17066;DHT22;23120;52.336;21.182;2023-10-13T05:58:46;5.00;99.90
17066;DHT22;23120;52.336;21.182;2023-10-13T06:01:30;5.00;99.90
17066;DHT22;23120;52.336;21.182;2023-10-13T06:04:15;5.20;99.90
17066;DHT22;23120;52.336;21.182;2023-10-13T06:06:59;5.20;99.90
17066;DHT22;23120;52.336;21.182;2023-10-13T06:09:44;5.20;99.90
17066;DHT22;23120;52.336;21.182;2023-10-13T06:12:54;5.20;99.90
17066;DHT22;23120;52.336;21.182;2023-10-13T06:15:40;5.30;99.90
17066;DHT22;23120;52.336;21.182;2023-10-13T06:18:24;5.30;99.90
17066;DHT22;23120;52.336;21.182;2023-10-13T06:21:08;5.40;99.90
17066;DHT22;23120;52.336;21.182;2023-10-13T06:23:52;5.50;99.90
17066;DHT22;23120;52.336;21.182;2023-10-13T06:26:52;5.60;99.90
17066;DHT22;23120;52.336;21.182;2023-10-13T06:29:36;5.70;99.90
17066;DHT22;23120;52.336;21.182;2023-10-13T06:32:04;5.80;99.90
17066;DHT22;23120;52.336;21.182;2023-10-13T06:34:36;5.80;99.90
17066;DHT22;23120;52.336;21.182;2023-10-13T06:37:08;5.90;99.90
17066;DHT22;23120;52.336;21.182;2023-10-13T06:39:48;6.00;99.90
17066;DHT22;23120;52.336;21.182;2023-10-13T06:42:15;6.00;99.90
17066;DHT22;23120;52.336;21.182;2023-10-13T06:44:42;6.10;99.90
17066;DHT22;23120;52.336;21.182;2023-10-13T06:47:12;6.20;99.90
17066;DHT22;23120;52.336;21.182;2023-10-13T06:49:39;6.30;99.90
17066;DHT22;23120;52.336;21.182;2023-10-13T06:52:09;6.30;99.90
17066;DHT22;23120;52.336;21.182;2023-10-13T06:54:36;6.40;99.90
17066;DHT22;23120;52.336;21.182;2023-10-13T06:57:04;6.50;99.90
17066;DHT22;23120;52.336;21.182;2023-10-13T06:59:32;6.60;99.90
17066;DHT22;23120;52.336;21.182;2023-10-13T07:02:02;6.70;99.90
17066;DHT22;23120;52.336;21.182;2023-10-13T07:04:32;6.70;99.90
17066;DHT22;23120;52.336;21.182;2023-10-13T07:06:59;6.90;99.90
17066;DHT22;23120;52.336;21.182;2023-10-13T07:09:27;6.90;99.90
17066;DHT22;23120;52.336;21.182;2023-10-13T07:12:07;7.00;99.90
17066;DHT22;23120;52.336;21.182;2023-10-13T07:14:45;7.10;99.90
17066;DHT22;23120;52.336;21.182;2023-10-13T07:17:18;7.20;99.90
17066;DHT22;23120;52.336;21.182;2023-10-13T07:19:51;7.20;99.90
17066;DHT22;23120;52.336;21.182;2023-10-13T07:22:22;7.30;99.90
17066;DHT22;23120;52.336;21.182;2023-10-13T07:24:51;7.40;99.90
17066;DHT22;23120;52.336;21.182;2023-10-13T07:27:18;7.50;99.90
17066;DHT22;23120;52.336;21.182;2023-10-13T07:29:50;7.60;99.90
17066;DHT22;23120;52.336;21.182;2023-10-13T07:32:32;7.70;99.90
17066;DHT22;23120;52.336;21.182;2023-10-13T07:35:01;7.80;99.90
17066;DHT22;23120;52.336;21.182;2023-10-13T07:37:31;7.90;99.90
17066;DHT22;23120;52.336;21.182;2023-10-13T07:39:58;8.00;99.90
17066;DHT22;23120;52.336;21.182;2023-10-13T07:42:25;8.10;99.90
17066;DHT22;23120;52.336;21.182;2023-10-13T07:44:58;8.20;99.90
17066;DHT22;23120;52.336;21.182;2023-10-13T07:47:25;8.40;99.90
17066;DHT22;23120;52.336;21.182;2023-10-13T07:49:54;8.50;99.90
17066;DHT22;23120;52.336;21.182;2023-10-13T07:52:23;8.70;99.90
17066;DHT22;23120;52.336;21.182;2023-10-13T07:54:52;8.70;99.90
17066;DHT22;23120;52.336;21.182;2023-10-13T07:57:25;8.90;99.90
17066;DHT22;23120;52.336;21.182;2023-10-13T07:59:55;9.00;99.90
17066;DHT22;23120;52.336;21.182;2023-10-13T08:02:41;9.10;99.90
17066;DHT22;23120;52.336;21.182;2023-10-13T08:06:25;9.20;99.90
17066;DHT22;23120;52.336;21.182;2023-10-13T08:09:39;9.50;99.90
17066;DHT22;23120;52.336;21.182;2023-10-13T08:12:07;9.50;99.90
17066;DHT22;23120;52.336;21.182;2023-10-13T08:17:50;9.80;99.90
17066;DHT22;23120;52.336;21.182;2023-10-13T08:20:41;9.90;99.90
17066;DHT22;23120;52.336;21.182;2023-10-13T08:27:15;10.10;99.90
17066;DHT22;23120;52.336;21.182;2023-10-13T08:29:59;10.30;99.90
17066;DHT22;23120;52.336;21.182;2023-10-13T08:33:20;10.30;99.90
17066;DHT22;23120;52.336;21.182;2023-10-13T08:35:50;10.40;99.90
17066;DHT22;23120;52.336;21.182;2023-10-13T08:38:56;10.60;99.90
17066;DHT22;23120;52.336;21.182;2023-10-13T08:41:23;10.70;99.90
17066;DHT22;23120;52.336;21.182;2023-10-13T08:44:05;10.70;99.90
17066;DHT22;23120;52.336;21.182;2023-10-13T08:46:34;10.80;99.90
17066;DHT22;23120;52.336;21.182;2023-10-13T08:49:32;11.00;99.90
17066;DHT22;23120;52.336;21.182;2023-10-13T08:52:09;11.10;99.90
17066;DHT22;23120;52.336;21.182;2023-10-13T08:54:51;11.20;99.90
17066;DHT22;23120;52.336;21.182;2023-10-13T08:57:39;11.30;99.90
17066;DHT22;23120;52.336;21.182;2023-10-13T09:00:16;11.40;99.90
17066;DHT22;23120;52.336;21.182;2023-10-13T09:03:32;11.40;99.90
17066;DHT22;23120;52.336;21.182;2023-10-13T09:06:53;11.50;99.90
17066;DHT22;23120;52.336;21.182;2023-10-13T09:10:22;11.60;99.90
17066;DHT22;23120;52.336;21.182;2023-10-13T09:12:59;11.60;99.90
17066;DHT22;23120;52.336;21.182;2023-10-13T09:15:30;11.70;99.90
17066;DHT22;23120;52.336;21.182;2023-10-13T09:18:23;11.70;99.90
17066;DHT22;23120;52.336;21.182;2023-10-13T09:21:07;11.80;99.90
17066;DHT22;23120;52.336;21.182;2023-10-13T09:23:55;11.90;99.90
17066;DHT22;23120;52.336;21.182;2023-10-13T09:26:43;11.90;99.90
17066;DHT22;23120;52.336;21.182;2023-10-13T09:29:17;12.10;99.90
17066;DHT22;23120;52.336;21.182;2023-10-13T09:31:47;12.20;99.90
17066;DHT22;23120;52.336;21.182;2023-10-13T09:34:20;12.20;99.90
17066;DHT22;23120;52.336;21.182;2023-10-13T09:36:47;12.30;99.90
17066;DHT22;23120;52.336;21.182;2023-10-13T09:39:24;12.40;99.90
17066;DHT22;23120;52.336;21.182;2023-10-13T09:42:01;12.40;99.90
17066;DHT22;23120;52.336;21.182;2023-10-13T09:44:29;12.50;99.90
17066;DHT22;23120;52.336;21.182;2023-10-13T09:47:01;12.60;99.90
17066;DHT22;23120;52.336;21.182;2023-10-13T09:49:39;12.70;99.90
17066;DHT22;23120;52.336;21.182;2023-10-13T09:52:18;12.80;99.90
17066;DHT22;23120;52.336;21.182;2023-10-13T09:55:35;12.90;99.90
17066;DHT22;23120;52.336;21.182;2023-10-13T09:58:25;13.00;99.90
17066;DHT22;23120;52.336;21.182;2023-10-13T10:01:06;13.10;99.90
17066;DHT22;23120;52.336;21.182;2023-10-13T10:03:45;13.20;99.90
17066;DHT22;23120;52.336;21.182;2023-10-13T10:09:36;13.40;99.90
17066;DHT22;23120;52.336;21.182;2023-10-13T10:12:19;13.40;99.90
17066;DHT22;23120;52.336;21.182;2023-10-13T10:15:04;13.50;99.90
17066;DHT22;23120;52.336;21.182;2023-10-13T10:17:38;13.60;99.90
17066;DHT22;23120;52.336;21.182;2023-10-13T10:20:07;13.70;99.90
17066;DHT22;23120;52.336;21.182;2023-10-13T10:22:40;13.70;99.90
17066;DHT22;23120;52.336;21.182;2023-10-13T10:25:12;13.80;99.90
17066;DHT22;23120;52.336;21.182;2023-10-13T10:27:55;14.00;99.90
17066;DHT22;23120;52.336;21.182;2023-10-13T10:30:24;14.10;99.90
17066;DHT22;23120;52.336;21.182;2023-10-13T10:32:54;14.30;99.90
17066;DHT22;23120;52.336;21.182;2023-10-13T10:35:26;14.30;99.90
17066;DHT22;23120;52.336;21.182;2023-10-13T10:37:56;14.40;99.90
17066;DHT22;23120;52.336;21.182;2023-10-13T10:40:29;14.50;99.90
17066;DHT22;23120;52.336;21.182;2023-10-13T10:43:12;14.60;99.90
17066;DHT22;23120;52.336;21.182;2023-10-13T10:45:46;14.70;99.90
17066;DHT22;23120;52.336;21.182;2023-10-13T10:48:16;14.80;99.90
17066;DHT22;23120;52.336;21.182;2023-10-13T10:50:51;14.90;99.90
17066;DHT22;23120;52.336;21.182;2023-10-13T10:53:20;15.00;99.90
17066;DHT22;23120;52.336;21.182;2023-10-13T10:56:04;15.10;99.90
17066;DHT22;23120;52.336;21.182;2023-10-13T10:58:34;15.30;99.90
17066;DHT22;23120;52.336;21.182;2023-10-13T11:01:09;15.30;99.90
17066;DHT22;23120;52.336;21.182;2023-10-13T11:03:37;15.40;99.90
17066;DHT22;23120;52.336;21.182;2023-10-13T11:06:13;15.50;99.90
17066;DHT22;23120;52.336;21.182;2023-10-13T11:08:44;15.50;99.90
17066;DHT22;23120;52.336;21.182;2023-10-13T11:11:28;15.60;99.90
17066;DHT22;23120;52.336;21.182;2023-10-13T11:14:00;15.70;99.90
17066;DHT22;23120;52.336;21.182;2023-10-13T11:16:46;15.70;99.90
17066;DHT22;23120;52.336;21.182;2023-10-13T11:19:17;15.80;99.90
17066;DHT22;23120;52.336;21.182;2023-10-13T11:21:47;15.80;99.90
17066;DHT22;23120;52.336;21.182;2023-10-13T11:24:14;15.90;99.90
17066;DHT22;23120;52.336;21.182;2023-10-13T11:26:43;15.90;99.90
17066;DHT22;23120;52.336;21.182;2023-10-13T11:29:16;16.00;99.90
17066;DHT22;23120;52.336;21.182;2023-10-13T11:31:45;16.00;99.90
17066;DHT22;23120;52.336;21.182;2023-10-13T11:34:13;16.10;99.90
17066;DHT22;23120;52.336;21.182;2023-10-13T11:36:42;16.20;99.90
17066;DHT22;23120;52.336;21.182;2023-10-13T11:39:11;16.20;99.90
17066;DHT22;23120;52.336;21.182;2023-10-13T11:41:43;16.20;99.90
17066;DHT22;23120;52.336;21.182;2023-10-13T11:44:16;16.30;99.90
17066;DHT22;23120;52.336;21.182;2023-10-13T11:46:57;16.40;99.90
17066;DHT22;23120;52.336;21.182;2023-10-13T11:49:33;16.50;99.90
17066;DHT22;23120;52.336;21.182;2023-10-13T11:52:03;16.50;99.90
17066;DHT22;23120;52.336;21.182;2023-10-13T11:54:43;16.60;99.90
17066;DHT22;23120;52.336;21.182;2023-10-13T11:57:10;16.70;99.90
17066;DHT22;23120;52.336;21.182;2023-10-13T11:59:37;16.80;99.90
17066;DHT22;23120;52.336;21.182;2023-10-13T12:02:19;16.80;99.90
17066;DHT22;23120;52.336;21.182;2023-10-13T12:05:05;16.90;99.90
17066;DHT22;23120;52.336;21.182;2023-10-13T12:07:37;16.90;99.90
17066;DHT22;23120;52.336;21.182;2023-10-13T12:10:15;17.00;99.90
17066;DHT22;23120;52.336;21.182;2023-10-13T12:12:46;17.10;99.90
17066;DHT22;23120;52.336;21.182;2023-10-13T12:15:19;17.20;99.90
17066;DHT22;23120;52.336;21.182;2023-10-13T12:17:58;17.30;99.90
17066;DHT22;23120;52.336;21.182;2023-10-13T12:20:28;17.40;99.90
17066;DHT22;23120;52.336;21.182;2023-10-13T12:23:02;17.40;99.90
17066;DHT22;23120;52.336;21.182;2023-10-13T12:25:43;17.60;99.90
17066;DHT22;23120;52.336;21.182;2023-10-13T12:28:25;17.70;99.90
17066;DHT22;23120;52.336;21.182;2023-10-13T12:31:02;17.80;99.90
17066;DHT22;23120;52.336;21.182;2023-10-13T12:33:32;17.90;99.90
17066;DHT22;23120;52.336;21.182;2023-10-13T12:36:03;18.00;99.90
17066;DHT22;23120;52.336;21.182;2023-10-13T12:38:35;18.20;99.90
17066;DHT22;23120;52.336;21.182;2023-10-13T12:41:20;18.20;99.90
17066;DHT22;23120;52.336;21.182;2023-10-13T12:44:06;18.30;99.90
17066;DHT22;23120;52.336;21.182;2023-10-13T12:46:47;18.40;99.90
17066;DHT22;23120;52.336;21.182;2023-10-13T12:49:32;18.50;99.90
17066;DHT22;23120;52.336;21.182;2023-10-13T12:52:15;18.60;99.90
17066;DHT22;23120;52.336;21.182;2023-10-13T12:54:45;18.70;99.90
17066;DHT22;23120;52.336;21.182;2023-10-13T12:57:15;18.70;99.90
17066;DHT22;23120;52.336;21.182;2023-10-13T12:59:42;18.80;99.90
17066;DHT22;23120;52.336;21.182;2023-10-13T13:02:09;18.80;99.90
17066;DHT22;23120;52.336;21.182;2023-10-13T13:04:41;18.90;99.90
17066;DHT22;23120;52.336;21.182;2023-10-13T13:07:10;18.90;99.90
17066;DHT22;23120;52.336;21.182;2023-10-13T13:09:39;18.90;99.90
17066;DHT22;23120;52.336;21.182;2023-10-13T13:12:06;18.90;99.90
17066;DHT22;23120;52.336;21.182;2023-10-13T13:14:36;18.90;99.90
17066;DHT22;23120;52.336;21.182;2023-10-13T13:17:06;18.90;99.90
17066;DHT22;23120;52.336;21.182;2023-10-13T13:19:33;19.00;99.90
17066;DHT22;23120;52.336;21.182;2023-10-13T13:22:02;18.90;99.90
17066;DHT22;23120;52.336;21.182;2023-10-13T13:24:29;18.90;99.90
17066;DHT22;23120;52.336;21.182;2023-10-13T13:26:56;19.00;99.90
17066;DHT22;23120;52.336;21.182;2023-10-13T13:29:28;19.00;99.90
17066;DHT22;23120;52.336;21.182;2023-10-13T13:31:57;19.00;99.90
17066;DHT22;23120;52.336;21.182;2023-10-13T13:34:26;19.00;99.90
17066;DHT22;23120;52.336;21.182;2023-10-13T13:36:52;19.10;99.90
17066;DHT22;23120;52.336;21.182;2023-10-13T13:39:19;19.10;99.90
17066;DHT22;23120;52.336;21.182;2023-10-13T13:41:54;19.10;99.90
17066;DHT22;23120;52.336;21.182;2023-10-13T13:44:23;19.00;99.90
17066;DHT22;23120;52.336;21.182;2023-10-13T13:46:57;19.00;99.90
17066;DHT22;23120;52.336;21.182;2023-10-13T13:49:24;19.00;99.90
17066;DHT22;23120;52.336;21.182;2023-10-13T13:52:05;18.90;99.90
17066;DHT22;23120;52.336;21.182;2023-10-13T13:54:32;18.90;99.90
17066;DHT22;23120;52.336;21.182;2023-10-13T13:56:59;18.90;99.90
17066;DHT22;23120;52.336;21.182;2023-10-13T13:59:26;18.80;99.90
17066;DHT22;23120;52.336;21.182;2023-10-13T14:02:15;18.80;99.90
17066;DHT22;23120;52.336;21.182;2023-10-13T14:04:48;18.60;99.90
17066;DHT22;23120;52.336;21.182;2023-10-13T14:07:18;18.60;99.90
17066;DHT22;23120;52.336;21.182;2023-10-13T14:09:47;18.60;99.90
17066;DHT22;23120;52.336;21.182;2023-10-13T14:12:17;18.60;99.90
17066;DHT22;23120;52.336;21.182;2023-10-13T14:15:08;18.50;99.90
17066;DHT22;23120;52.336;21.182;2023-10-13T14:17:46;18.50;99.90
17066;DHT22;23120;52.336;21.182;2023-10-13T14:20:14;18.50;99.90
17066;DHT22;23120;52.336;21.182;2023-10-13T14:22:44;18.40;99.90
17066;DHT22;23120;52.336;21.182;2023-10-13T14:25:14;18.40;99.90
17066;DHT22;23120;52.336;21.182;2023-10-13T14:27:41;18.30;99.90
17066;DHT22;23120;52.336;21.182;2023-10-13T14:30:08;18.30;99.90
17066;DHT22;23120;52.336;21.182;2023-10-13T14:32:35;18.20;99.90
17066;DHT22;23120;52.336;21.182;2023-10-13T14:39:14;18.10;99.90
17066;DHT22;23120;52.336;21.182;2023-10-13T14:41:41;18.10;99.90
17066;DHT22;23120;52.336;21.182;2023-10-13T14:44:08;18.00;99.90
17066;DHT22;23120;52.336;21.182;2023-10-13T14:50:18;18.00;99.90
17066;DHT22;23120;52.336;21.182;2023-10-13T14:53:49;18.00;99.90
17066;DHT22;23120;52.336;21.182;2023-10-13T14:56:23;17.90;99.90
17066;DHT22;23120;52.336;21.182;2023-10-13T14:58:51;17.90;99.90
17066;DHT22;23120;52.336;21.182;2023-10-13T15:01:19;17.80;99.90
17066;DHT22;23120;52.336;21.182;2023-10-13T15:03:47;17.80;99.90
17066;DHT22;23120;52.336;21.182;2023-10-13T15:06:17;17.80;99.90
17066;DHT22;23120;52.336;21.182;2023-10-13T15:08:46;17.60;99.90
17066;DHT22;23120;52.336;21.182;2023-10-13T15:11:15;17.60;99.90
17066;DHT22;23120;52.336;21.182;2023-10-13T15:13:45;17.60;99.90
17066;DHT22;23120;52.336;21.182;2023-10-13T15:16:14;17.60;99.90
17066;DHT22;23120;52.336;21.182;2023-10-13T15:18:43;17.60;99.90
17066;DHT22;23120;52.336;21.182;2023-10-13T15:21:11;17.60;99.90
17066;DHT22;23120;52.336;21.182;2023-10-13T15:23:39;17.50;99.90
17066;DHT22;23120;52.336;21.182;2023-10-13T15:26:09;17.50;99.90
17066;DHT22;23120;52.336;21.182;2023-10-13T15:28:36;17.40;99.90
17066;DHT22;23120;52.336;21.182;2023-10-13T15:31:12;17.40;99.90
17066;DHT22;23120;52.336;21.182;2023-10-13T15:33:51;17.40;99.90
17066;DHT22;23120;52.336;21.182;2023-10-13T15:36:21;17.30;99.90
17066;DHT22;23120;52.336;21.182;2023-10-13T15:38:49;17.30;99.90
17066;DHT22;23120;52.336;21.182;2023-10-13T15:41:21;17.20;99.90
17066;DHT22;23120;52.336;21.182;2023-10-13T15:43:49;17.20;99.90
17066;DHT22;23120;52.336;21.182;2023-10-13T15:46:19;17.20;99.90
17066;DHT22;23120;52.336;21.182;2023-10-13T15:48:47;17.10;99.90
17066;DHT22;23120;52.336;21.182;2023-10-13T15:51:14;17.10;99.90
17066;DHT22;23120;52.336;21.182;2023-10-13T15:53:42;17.10;99.90
17066;DHT22;23120;52.336;21.182;2023-10-13T15:56:10;17.00;99.90
17066;DHT22;23120;52.336;21.182;2023-10-13T15:58:38;17.00;99.90
17066;DHT22;23120;52.336;21.182;2023-10-13T16:01:10;17.00;99.90
17066;DHT22;23120;52.336;21.182;2023-10-13T16:03:40;16.90;99.90
17066;DHT22;23120;52.336;21.182;2023-10-13T16:06:10;16.90;99.90
17066;DHT22;23120;52.336;21.182;2023-10-13T16:08:37;16.90;99.90
17066;DHT22;23120;52.336;21.182;2023-10-13T16:11:05;16.90;99.90
17066;DHT22;23120;52.336;21.182;2023-10-13T16:13:38;16.90;99.90
17066;DHT22;23120;52.336;21.182;2023-10-13T16:16:05;16.90;99.90
17066;DHT22;23120;52.336;21.182;2023-10-13T16:18:32;16.90;99.90
17066;DHT22;23120;52.336;21.182;2023-10-13T16:21:01;16.90;99.90
17066;DHT22;23120;52.336;21.182;2023-10-13T16:23:29;16.80;99.90
17066;DHT22;23120;52.336;21.182;2023-10-13T16:25:56;16.80;99.90
17066;DHT22;23120;52.336;21.182;2023-10-13T16:28:25;16.80;99.90